sensor_id;sensor_type;location;lat;lon;timestamp;P1;durP1;ratioP1;P2;durP2;ratioP2
45970;SDS011;31681;48.982;8.394;2023-02-12T00:00:39;24.20;;;14.80;;
45970;SDS011;31681;48.982;8.394;2023-02-12T00:03:05;27.17;;;15.50;;
45970;SDS011;31681;48.982;8.394;2023-02-12T00:05:30;22.97;;;14.77;;
45970;SDS011;31681;48.982;8.394;2023-02-12T00:07:56;23.47;;;15.57;;
45970;SDS011;31681;48.982;8.394;2023-02-12T00:10:21;23.67;;;15.37;;
45970;SDS011;31681;48.982;8.394;2023-02-12T00:12:47;27.33;;;15.20;;
45970;SDS011;31681;48.982;8.394;2023-02-12T00:15:12;27.37;;;15.73;;
45970;SDS011;31681;48.982;8.394;2023-02-12T00:17:38;27.80;;;14.90;;
45970;SDS011;31681;48.982;8.394;2023-02-12T00:20:03;28.57;;;16.20;;
45970;SDS011;31681;48.982;8.394;2023-02-12T00:22:29;25.93;;;15.70;;
45970;SDS011;31681;48.982;8.394;2023-02-12T00:24:54;27.70;;;14.97;;
45970;SDS011;31681;48.982;8.394;2023-02-12T00:27:20;26.83;;;16.00;;
45970;SDS011;31681;48.982;8.394;2023-02-12T00:29:45;23.87;;;15.20;;
45970;SDS011;31681;48.982;8.394;2023-02-12T00:32:11;27.50;;;16.10;;
45970;SDS011;31681;48.982;8.394;2023-02-12T00:34:38;23.00;;;15.07;;
45970;SDS011;31681;48.982;8.394;2023-02-12T00:37:03;25.40;;;15.20;;
45970;SDS011;31681;48.982;8.394;2023-02-12T00:39:29;24.60;;;15.63;;
45970;SDS011;31681;48.982;8.394;2023-02-12T00:41:54;25.03;;;15.57;;
45970;SDS011;31681;48.982;8.394;2023-02-12T00:44:19;23.77;;;14.50;;
45970;SDS011;31681;48.982;8.394;2023-02-12T00:46:45;25.33;;;15.67;;
45970;SDS011;31681;48.982;8.394;2023-02-12T00:49:10;27.67;;;15.57;;
45970;SDS011;31681;48.982;8.394;2023-02-12T00:51:35;25.07;;;15.30;;
45970;SDS011;31681;48.982;8.394;2023-02-12T00:54:01;24.43;;;14.97;;
45970;SDS011;31681;48.982;8.394;2023-02-12T00:56:26;25.97;;;14.93;;
45970;SDS011;31681;48.982;8.394;2023-02-12T00:58:51;24.63;;;15.77;;
45970;SDS011;31681;48.982;8.394;2023-02-12T01:01:17;23.47;;;15.40;;
45970;SDS011;31681;48.982;8.394;2023-02-12T01:03:42;25.47;;;16.13;;
45970;SDS011;31681;48.982;8.394;2023-02-12T01:06:08;26.83;;;14.73;;
45970;SDS011;31681;48.982;8.394;2023-02-12T01:08:33;26.67;;;16.13;;
45970;SDS011;31681;48.982;8.394;2023-02-12T01:11:00;25.30;;;15.37;;
45970;SDS011;31681;48.982;8.394;2023-02-12T01:13:26;26.93;;;15.10;;
45970;SDS011;31681;48.982;8.394;2023-02-12T01:18:50;26.30;;;15.47;;
45970;SDS011;31681;48.982;8.394;2023-02-12T01:21:26;23.27;;;15.43;;
45970;SDS011;31681;48.982;8.394;2023-02-12T01:23:53;26.60;;;16.20;;
45970;SDS011;31681;48.982;8.394;2023-02-12T01:26:19;28.47;;;17.80;;
45970;SDS011;31681;48.982;8.394;2023-02-12T01:28:47;31.43;;;19.07;;
45970;SDS011;31681;48.982;8.394;2023-02-12T01:31:21;34.83;;;18.97;;
45970;SDS011;31681;48.982;8.394;2023-02-12T01:33:49;32.73;;;19.03;;
45970;SDS011;31681;48.982;8.394;2023-02-12T01:36:15;33.13;;;18.57;;
45970;SDS011;31681;48.982;8.394;2023-02-12T01:38:40;30.80;;;17.77;;
45970;SDS011;31681;48.982;8.394;2023-02-12T01:41:11;27.70;;;17.73;;
45970;SDS011;31681;48.982;8.394;2023-02-12T01:43:37;31.60;;;20.27;;
45970;SDS011;31681;48.982;8.394;2023-02-12T01:46:02;33.50;;;20.37;;
45970;SDS011;31681;48.982;8.394;2023-02-12T01:48:30;31.00;;;19.70;;
45970;SDS011;31681;48.982;8.394;2023-02-12T01:50:57;33.40;;;20.10;;
45970;SDS011;31681;48.982;8.394;2023-02-12T01:53:23;37.07;;;20.33;;
45970;SDS011;31681;48.982;8.394;2023-02-12T01:55:54;32.60;;;20.53;;
45970;SDS011;31681;48.982;8.394;2023-02-12T01:58:21;31.03;;;18.97;;
45970;SDS011;31681;48.982;8.394;2023-02-12T02:00:48;31.37;;;19.17;;
45970;SDS011;31681;48.982;8.394;2023-02-12T02:03:13;31.07;;;19.53;;
45970;SDS011;31681;48.982;8.394;2023-02-12T02:08:04;37.63;;;20.47;;
45970;SDS011;31681;48.982;8.394;2023-02-12T02:10:29;33.73;;;21.17;;
45970;SDS011;31681;48.982;8.394;2023-02-12T02:12:55;35.80;;;20.80;;
45970;SDS011;31681;48.982;8.394;2023-02-12T02:15:40;34.57;;;21.73;;
45970;SDS011;31681;48.982;8.394;2023-02-12T02:18:09;35.50;;;20.90;;
45970;SDS011;31681;48.982;8.394;2023-02-12T02:20:56;33.77;;;20.70;;
45970;SDS011;31681;48.982;8.394;2023-02-12T02:44:30;32.60;;;20.70;;
45970;SDS011;31681;48.982;8.394;2023-02-12T02:46:59;33.90;;;20.23;;
45970;SDS011;31681;48.982;8.394;2023-02-12T02:49:27;29.33;;;19.13;;
45970;SDS011;31681;48.982;8.394;2023-02-12T02:51:56;30.93;;;19.53;;
45970;SDS011;31681;48.982;8.394;2023-02-12T02:54:26;34.97;;;20.23;;
45970;SDS011;31681;48.982;8.394;2023-02-12T02:59:37;30.13;;;19.53;;
45970;SDS011;31681;48.982;8.394;2023-02-12T03:02:08;32.73;;;20.20;;
45970;SDS011;31681;48.982;8.394;2023-02-12T03:04:35;32.83;;;20.37;;
45970;SDS011;31681;48.982;8.394;2023-02-12T03:07:13;31.40;;;20.53;;
45970;SDS011;31681;48.982;8.394;2023-02-12T03:09:42;30.27;;;19.13;;
45970;SDS011;31681;48.982;8.394;2023-02-12T03:12:10;32.87;;;19.87;;
45970;SDS011;31681;48.982;8.394;2023-02-12T03:14:38;28.47;;;18.73;;
45970;SDS011;31681;48.982;8.394;2023-02-12T03:17:06;29.00;;;18.70;;
45970;SDS011;31681;48.982;8.394;2023-02-12T03:19:34;31.90;;;18.90;;
45970;SDS011;31681;48.982;8.394;2023-02-12T03:22:03;32.70;;;19.67;;
45970;SDS011;31681;48.982;8.394;2023-02-12T03:27:05;33.90;;;20.20;;
45970;SDS011;31681;48.982;8.394;2023-02-12T03:29:31;31.90;;;20.37;;
45970;SDS011;31681;48.982;8.394;2023-02-12T03:31:58;28.47;;;18.77;;
45970;SDS011;31681;48.982;8.394;2023-02-12T03:42:08;33.80;;;19.33;;
45970;SDS011;31681;48.982;8.394;2023-02-12T03:44:52;30.37;;;18.87;;
45970;SDS011;31681;48.982;8.394;2023-02-12T03:52:28;30.03;;;18.53;;
45970;SDS011;31681;48.982;8.394;2023-02-12T03:54:54;32.63;;;19.03;;
45970;SDS011;31681;48.982;8.394;2023-02-12T03:57:20;29.57;;;18.20;;
45970;SDS011;31681;48.982;8.394;2023-02-12T03:59:46;29.30;;;18.60;;
45970;SDS011;31681;48.982;8.394;2023-02-12T04:02:12;28.63;;;18.10;;
45970;SDS011;31681;48.982;8.394;2023-02-12T04:04:38;29.30;;;18.03;;
45970;SDS011;31681;48.982;8.394;2023-02-12T04:07:03;33.97;;;18.47;;
45970;SDS011;31681;48.982;8.394;2023-02-12T04:09:29;29.20;;;18.70;;
45970;SDS011;31681;48.982;8.394;2023-02-12T04:14:40;28.80;;;18.17;;
45970;SDS011;31681;48.982;8.394;2023-02-12T04:17:14;25.87;;;16.97;;
45970;SDS011;31681;48.982;8.394;2023-02-12T04:27:25;30.87;;;18.60;;
45970;SDS011;31681;48.982;8.394;2023-02-12T04:29:54;30.00;;;18.03;;
45970;SDS011;31681;48.982;8.394;2023-02-12T04:32:41;29.80;;;17.97;;
45970;SDS011;31681;48.982;8.394;2023-02-12T04:35:11;30.50;;;17.13;;
45970;SDS011;31681;48.982;8.394;2023-02-12T04:37:43;29.00;;;19.10;;
45970;SDS011;31681;48.982;8.394;2023-02-12T04:40:11;28.33;;;18.73;;
45970;SDS011;31681;48.982;8.394;2023-02-12T04:42:41;31.37;;;18.77;;
45970;SDS011;31681;48.982;8.394;2023-02-12T04:45:08;33.67;;;18.77;;
45970;SDS011;31681;48.982;8.394;2023-02-12T04:47:34;34.70;;;19.70;;
45970;SDS011;31681;48.982;8.394;2023-02-12T04:49:59;32.63;;;20.43;;
45970;SDS011;31681;48.982;8.394;2023-02-12T04:52:24;31.03;;;18.83;;
45970;SDS011;31681;48.982;8.394;2023-02-12T04:54:50;29.07;;;18.83;;
45970;SDS011;31681;48.982;8.394;2023-02-12T04:57:15;33.23;;;19.90;;
45970;SDS011;31681;48.982;8.394;2023-02-12T04:59:40;29.27;;;20.50;;
45970;SDS011;31681;48.982;8.394;2023-02-12T05:02:06;31.77;;;19.80;;
45970;SDS011;31681;48.982;8.394;2023-02-12T05:04:31;32.83;;;19.23;;
45970;SDS011;31681;48.982;8.394;2023-02-12T05:06:57;33.53;;;20.70;;
45970;SDS011;31681;48.982;8.394;2023-02-12T05:09:22;33.73;;;21.23;;
45970;SDS011;31681;48.982;8.394;2023-02-12T05:11:47;34.03;;;20.10;;
45970;SDS011;31681;48.982;8.394;2023-02-12T05:14:13;34.70;;;20.97;;
45970;SDS011;31681;48.982;8.394;2023-02-12T05:16:38;34.93;;;20.43;;
45970;SDS011;31681;48.982;8.394;2023-02-12T05:19:04;36.00;;;21.00;;
45970;SDS011;31681;48.982;8.394;2023-02-12T05:21:29;37.87;;;21.13;;
45970;SDS011;31681;48.982;8.394;2023-02-12T05:23:55;37.97;;;20.73;;
45970;SDS011;31681;48.982;8.394;2023-02-12T05:26:21;32.33;;;20.33;;
45970;SDS011;31681;48.982;8.394;2023-02-12T05:28:46;36.03;;;20.73;;
45970;SDS011;31681;48.982;8.394;2023-02-12T05:31:14;33.67;;;20.37;;
45970;SDS011;31681;48.982;8.394;2023-02-12T05:33:43;38.40;;;20.90;;
45970;SDS011;31681;48.982;8.394;2023-02-12T05:36:10;34.17;;;20.83;;
45970;SDS011;31681;48.982;8.394;2023-02-12T05:38:36;39.00;;;22.30;;
45970;SDS011;31681;48.982;8.394;2023-02-12T05:41:02;29.47;;;19.33;;
45970;SDS011;31681;48.982;8.394;2023-02-12T05:43:27;37.70;;;22.10;;
45970;SDS011;31681;48.982;8.394;2023-02-12T05:45:53;33.93;;;21.23;;
45970;SDS011;31681;48.982;8.394;2023-02-12T05:48:18;33.73;;;20.57;;
45970;SDS011;31681;48.982;8.394;2023-02-12T05:50:43;35.33;;;20.37;;
45970;SDS011;31681;48.982;8.394;2023-02-12T05:53:09;37.17;;;21.00;;
45970;SDS011;31681;48.982;8.394;2023-02-12T05:55:34;33.60;;;19.93;;
45970;SDS011;31681;48.982;8.394;2023-02-12T05:57:59;30.70;;;20.50;;
45970;SDS011;31681;48.982;8.394;2023-02-12T06:00:25;32.40;;;20.10;;
45970;SDS011;31681;48.982;8.394;2023-02-12T06:02:50;32.70;;;20.53;;
45970;SDS011;31681;48.982;8.394;2023-02-12T06:05:15;37.80;;;21.07;;
45970;SDS011;31681;48.982;8.394;2023-02-12T06:07:41;35.30;;;20.63;;
45970;SDS011;31681;48.982;8.394;2023-02-12T06:10:07;36.80;;;21.20;;
45970;SDS011;31681;48.982;8.394;2023-02-12T06:12:32;36.20;;;20.90;;
45970;SDS011;31681;48.982;8.394;2023-02-12T06:14:57;36.10;;;21.13;;
45970;SDS011;31681;48.982;8.394;2023-02-12T06:17:23;30.23;;;19.70;;
45970;SDS011;31681;48.982;8.394;2023-02-12T06:19:48;34.57;;;19.13;;
45970;SDS011;31681;48.982;8.394;2023-02-12T06:22:14;33.17;;;20.57;;
45970;SDS011;31681;48.982;8.394;2023-02-12T06:24:39;37.30;;;21.07;;
45970;SDS011;31681;48.982;8.394;2023-02-12T06:27:04;33.03;;;20.20;;
45970;SDS011;31681;48.982;8.394;2023-02-12T06:29:30;32.80;;;19.37;;
45970;SDS011;31681;48.982;8.394;2023-02-12T06:31:56;34.20;;;20.50;;
45970;SDS011;31681;48.982;8.394;2023-02-12T06:34:21;35.37;;;20.60;;
45970;SDS011;31681;48.982;8.394;2023-02-12T06:36:46;33.53;;;20.03;;
45970;SDS011;31681;48.982;8.394;2023-02-12T06:39:12;34.90;;;19.50;;
45970;SDS011;31681;48.982;8.394;2023-02-12T06:41:38;35.47;;;19.97;;
45970;SDS011;31681;48.982;8.394;2023-02-12T06:44:04;32.33;;;19.40;;
45970;SDS011;31681;48.982;8.394;2023-02-12T06:46:29;32.57;;;19.77;;
45970;SDS011;31681;48.982;8.394;2023-02-12T06:48:55;30.53;;;19.83;;
45970;SDS011;31681;48.982;8.394;2023-02-12T06:51:21;34.97;;;20.23;;
45970;SDS011;31681;48.982;8.394;2023-02-12T06:53:48;33.33;;;19.53;;
45970;SDS011;31681;48.982;8.394;2023-02-12T06:56:13;40.00;;;20.53;;
45970;SDS011;31681;48.982;8.394;2023-02-12T06:58:39;29.93;;;19.33;;
45970;SDS011;31681;48.982;8.394;2023-02-12T07:01:13;32.97;;;18.70;;
45970;SDS011;31681;48.982;8.394;2023-02-12T07:03:40;35.17;;;20.57;;
45970;SDS011;31681;48.982;8.394;2023-02-12T07:06:05;31.53;;;19.30;;
45970;SDS011;31681;48.982;8.394;2023-02-12T07:08:31;33.00;;;20.70;;
45970;SDS011;31681;48.982;8.394;2023-02-12T07:10:56;40.10;;;21.07;;
45970;SDS011;31681;48.982;8.394;2023-02-12T07:13:21;31.37;;;20.30;;
45970;SDS011;31681;48.982;8.394;2023-02-12T07:15:47;34.83;;;20.43;;
45970;SDS011;31681;48.982;8.394;2023-02-12T07:18:12;37.73;;;20.37;;
45970;SDS011;31681;48.982;8.394;2023-02-12T07:20:38;33.47;;;19.63;;
45970;SDS011;31681;48.982;8.394;2023-02-12T07:23:03;33.20;;;20.53;;
45970;SDS011;31681;48.982;8.394;2023-02-12T07:25:28;39.27;;;21.07;;
45970;SDS011;31681;48.982;8.394;2023-02-12T07:27:54;37.83;;;21.97;;
45970;SDS011;31681;48.982;8.394;2023-02-12T07:30:19;38.97;;;22.00;;
45970;SDS011;31681;48.982;8.394;2023-02-12T07:32:45;38.37;;;21.17;;
45970;SDS011;31681;48.982;8.394;2023-02-12T07:35:10;34.23;;;21.43;;
45970;SDS011;31681;48.982;8.394;2023-02-12T07:37:35;33.87;;;21.00;;
45970;SDS011;31681;48.982;8.394;2023-02-12T07:40:01;36.00;;;21.43;;
45970;SDS011;31681;48.982;8.394;2023-02-12T07:42:26;39.67;;;22.17;;
45970;SDS011;31681;48.982;8.394;2023-02-12T07:44:53;35.00;;;20.57;;
45970;SDS011;31681;48.982;8.394;2023-02-12T07:47:18;34.50;;;20.40;;
45970;SDS011;31681;48.982;8.394;2023-02-12T07:49:44;37.97;;;22.13;;
45970;SDS011;31681;48.982;8.394;2023-02-12T07:52:09;36.57;;;20.93;;
45970;SDS011;31681;48.982;8.394;2023-02-12T07:54:35;38.40;;;20.30;;
45970;SDS011;31681;48.982;8.394;2023-02-12T07:57:00;36.53;;;22.10;;
45970;SDS011;31681;48.982;8.394;2023-02-12T07:59:26;34.50;;;22.50;;
45970;SDS011;31681;48.982;8.394;2023-02-12T08:01:52;37.37;;;22.03;;
45970;SDS011;31681;48.982;8.394;2023-02-12T08:04:20;38.13;;;21.53;;
45970;SDS011;31681;48.982;8.394;2023-02-12T08:06:46;37.93;;;21.23;;
45970;SDS011;31681;48.982;8.394;2023-02-12T08:09:34;38.70;;;22.20;;
45970;SDS011;31681;48.982;8.394;2023-02-12T08:11:58;39.73;;;22.40;;
45970;SDS011;31681;48.982;8.394;2023-02-12T08:14:27;36.20;;;21.30;;
45970;SDS011;31681;48.982;8.394;2023-02-12T08:16:52;36.97;;;21.47;;
45970;SDS011;31681;48.982;8.394;2023-02-12T08:19:18;35.70;;;22.00;;
45970;SDS011;31681;48.982;8.394;2023-02-12T08:21:43;37.97;;;22.30;;
45970;SDS011;31681;48.982;8.394;2023-02-12T08:24:09;39.53;;;21.90;;
45970;SDS011;31681;48.982;8.394;2023-02-12T08:26:35;43.37;;;23.47;;
45970;SDS011;31681;48.982;8.394;2023-02-12T08:29:08;38.53;;;22.07;;
45970;SDS011;31681;48.982;8.394;2023-02-12T08:31:35;42.90;;;23.00;;
45970;SDS011;31681;48.982;8.394;2023-02-12T08:34:01;37.87;;;22.27;;
45970;SDS011;31681;48.982;8.394;2023-02-12T08:36:27;36.67;;;22.30;;
45970;SDS011;31681;48.982;8.394;2023-02-12T08:38:55;36.30;;;21.77;;
45970;SDS011;31681;48.982;8.394;2023-02-12T08:41:22;35.57;;;21.50;;
45970;SDS011;31681;48.982;8.394;2023-02-12T08:43:48;35.70;;;20.53;;
45970;SDS011;31681;48.982;8.394;2023-02-12T08:46:15;36.50;;;21.73;;
45970;SDS011;31681;48.982;8.394;2023-02-12T08:48:40;39.40;;;22.67;;
45970;SDS011;31681;48.982;8.394;2023-02-12T08:53:38;33.63;;;21.20;;
45970;SDS011;31681;48.982;8.394;2023-02-12T08:56:04;37.13;;;21.60;;
45970;SDS011;31681;48.982;8.394;2023-02-12T08:58:30;36.73;;;20.33;;
45970;SDS011;31681;48.982;8.394;2023-02-12T09:00:56;36.73;;;19.27;;
45970;SDS011;31681;48.982;8.394;2023-02-12T09:03:21;34.83;;;21.30;;
45970;SDS011;31681;48.982;8.394;2023-02-12T09:05:47;34.57;;;20.13;;
45970;SDS011;31681;48.982;8.394;2023-02-12T09:08:12;35.20;;;20.30;;
45970;SDS011;31681;48.982;8.394;2023-02-12T09:10:38;37.53;;;20.57;;
45970;SDS011;31681;48.982;8.394;2023-02-12T09:13:04;34.77;;;19.90;;
45970;SDS011;31681;48.982;8.394;2023-02-12T09:15:30;36.53;;;20.70;;
45970;SDS011;31681;48.982;8.394;2023-02-12T09:17:56;43.73;;;22.70;;
45970;SDS011;31681;48.982;8.394;2023-02-12T09:20:21;58.23;;;25.60;;
45970;SDS011;31681;48.982;8.394;2023-02-12T09:22:47;44.90;;;23.77;;
45970;SDS011;31681;48.982;8.394;2023-02-12T09:25:12;36.00;;;19.80;;
45970;SDS011;31681;48.982;8.394;2023-02-12T09:27:38;32.97;;;18.83;;
45970;SDS011;31681;48.982;8.394;2023-02-12T09:30:03;32.40;;;18.07;;
45970;SDS011;31681;48.982;8.394;2023-02-12T09:32:28;33.57;;;19.07;;
45970;SDS011;31681;48.982;8.394;2023-02-12T09:34:54;37.97;;;20.80;;
45970;SDS011;31681;48.982;8.394;2023-02-12T09:37:19;38.17;;;20.40;;
45970;SDS011;31681;48.982;8.394;2023-02-12T09:39:44;35.47;;;21.93;;
45970;SDS011;31681;48.982;8.394;2023-02-12T09:42:19;34.50;;;21.73;;
45970;SDS011;31681;48.982;8.394;2023-02-12T09:49:56;35.53;;;21.83;;
45970;SDS011;31681;48.982;8.394;2023-02-12T09:52:25;40.15;;;21.95;;
45970;SDS011;31681;48.982;8.394;2023-02-12T09:54:51;39.30;;;21.08;;
45970;SDS011;31681;48.982;8.394;2023-02-12T09:57:23;40.13;;;21.17;;
45970;SDS011;31681;48.982;8.394;2023-02-12T09:59:57;39.20;;;21.80;;
45970;SDS011;31681;48.982;8.394;2023-02-12T10:02:23;34.13;;;20.08;;
45970;SDS011;31681;48.982;8.394;2023-02-12T10:04:49;34.08;;;21.02;;
45970;SDS011;31681;48.982;8.394;2023-02-12T10:15:47;35.03;;;20.27;;
45970;SDS011;31681;48.982;8.394;2023-02-12T10:26:18;30.77;;;18.80;;
45970;SDS011;31681;48.982;8.394;2023-02-12T10:28:43;33.35;;;19.02;;
45970;SDS011;31681;48.982;8.394;2023-02-12T10:31:15;32.22;;;19.58;;
45970;SDS011;31681;48.982;8.394;2023-02-12T10:33:44;31.27;;;18.40;;
45970;SDS011;31681;48.982;8.394;2023-02-12T10:38:56;22.20;;;15.48;;
45970;SDS011;31681;48.982;8.394;2023-02-12T10:41:23;22.42;;;13.30;;
45970;SDS011;31681;48.982;8.394;2023-02-12T10:43:48;15.38;;;8.93;;
45970;SDS011;31681;48.982;8.394;2023-02-12T10:46:14;16.48;;;9.02;;
45970;SDS011;31681;48.982;8.394;2023-02-12T10:48:41;13.50;;;8.48;;
45970;SDS011;31681;48.982;8.394;2023-02-12T10:53:43;10.98;;;7.05;;
45970;SDS011;31681;48.982;8.394;2023-02-12T10:58:35;13.30;;;7.72;;
45970;SDS011;31681;48.982;8.394;2023-02-12T11:01:00;7.68;;;4.75;;
45970;SDS011;31681;48.982;8.394;2023-02-12T11:03:30;7.90;;;5.22;;
45970;SDS011;31681;48.982;8.394;2023-02-12T11:08:56;8.82;;;5.45;;
45970;SDS011;31681;48.982;8.394;2023-02-12T11:19:03;10.40;;;6.50;;
45970;SDS011;31681;48.982;8.394;2023-02-12T11:21:29;8.25;;;5.55;;
45970;SDS011;31681;48.982;8.394;2023-02-12T11:23:54;8.95;;;5.70;;
45970;SDS011;31681;48.982;8.394;2023-02-12T11:28:59;7.53;;;5.30;;
45970;SDS011;31681;48.982;8.394;2023-02-12T11:34:07;9.70;;;5.68;;
45970;SDS011;31681;48.982;8.394;2023-02-12T11:36:34;8.70;;;5.72;;
45970;SDS011;31681;48.982;8.394;2023-02-12T11:39:00;8.15;;;5.63;;
45970;SDS011;31681;48.982;8.394;2023-02-12T11:41:30;10.73;;;5.78;;
45970;SDS011;31681;48.982;8.394;2023-02-12T11:44:20;11.45;;;6.43;;
45970;SDS011;31681;48.982;8.394;2023-02-12T11:46:58;9.13;;;6.47;;
45970;SDS011;31681;48.982;8.394;2023-02-12T11:49:27;8.82;;;6.32;;
45970;SDS011;31681;48.982;8.394;2023-02-12T11:51:53;12.80;;;6.53;;
45970;SDS011;31681;48.982;8.394;2023-02-12T11:54:20;12.68;;;7.22;;
45970;SDS011;31681;48.982;8.394;2023-02-12T11:56:47;10.43;;;7.32;;
45970;SDS011;31681;48.982;8.394;2023-02-12T11:59:19;10.60;;;6.97;;
45970;SDS011;31681;48.982;8.394;2023-02-12T12:01:45;11.23;;;7.00;;
45970;SDS011;31681;48.982;8.394;2023-02-12T12:04:13;12.10;;;6.80;;
45970;SDS011;31681;48.982;8.394;2023-02-12T12:06:40;13.75;;;7.10;;
45970;SDS011;31681;48.982;8.394;2023-02-12T12:11:38;10.90;;;7.13;;
45970;SDS011;31681;48.982;8.394;2023-02-12T12:16:36;13.25;;;8.30;;
45970;SDS011;31681;48.982;8.394;2023-02-12T12:19:30;14.70;;;9.18;;
45970;SDS011;31681;48.982;8.394;2023-02-12T12:22:20;13.02;;;8.80;;
45970;SDS011;31681;48.982;8.394;2023-02-12T12:30:23;17.65;;;11.07;;
45970;SDS011;31681;48.982;8.394;2023-02-12T12:32:53;17.02;;;9.77;;
45970;SDS011;31681;48.982;8.394;2023-02-12T12:35:21;16.58;;;10.63;;
45970;SDS011;31681;48.982;8.394;2023-02-12T12:40:58;19.55;;;11.95;;
45970;SDS011;31681;48.982;8.394;2023-02-12T12:51:11;14.07;;;9.70;;
45970;SDS011;31681;48.982;8.394;2023-02-12T12:56:23;15.32;;;9.88;;
45970;SDS011;31681;48.982;8.394;2023-02-12T13:01:31;14.82;;;9.18;;
45970;SDS011;31681;48.982;8.394;2023-02-12T13:14:24;14.98;;;9.07;;
45970;SDS011;31681;48.982;8.394;2023-02-12T13:22:20;17.98;;;10.43;;
45970;SDS011;31681;48.982;8.394;2023-02-12T13:27:18;17.25;;;10.18;;
45970;SDS011;31681;48.982;8.394;2023-02-12T13:29:48;13.95;;;9.82;;
45970;SDS011;31681;48.982;8.394;2023-02-12T13:32:15;16.30;;;8.77;;
45970;SDS011;31681;48.982;8.394;2023-02-12T13:34:46;14.55;;;8.68;;
45970;SDS011;31681;48.982;8.394;2023-02-12T13:37:16;13.52;;;8.02;;
45970;SDS011;31681;48.982;8.394;2023-02-12T13:39:44;13.73;;;8.85;;
45970;SDS011;31681;48.982;8.394;2023-02-12T13:42:26;14.20;;;8.10;;
45970;SDS011;31681;48.982;8.394;2023-02-12T13:45:06;15.23;;;8.75;;
45970;SDS011;31681;48.982;8.394;2023-02-12T13:47:50;14.60;;;8.88;;
45970;SDS011;31681;48.982;8.394;2023-02-12T13:52:57;14.30;;;8.80;;
45970;SDS011;31681;48.982;8.394;2023-02-12T13:55:33;14.32;;;8.30;;
45970;SDS011;31681;48.982;8.394;2023-02-12T14:03:11;14.32;;;8.25;;
45970;SDS011;31681;48.982;8.394;2023-02-12T14:05:37;12.70;;;7.43;;
45970;SDS011;31681;48.982;8.394;2023-02-12T14:08:03;12.85;;;7.97;;
45970;SDS011;31681;48.982;8.394;2023-02-12T14:15:58;12.48;;;6.70;;
45970;SDS011;31681;48.982;8.394;2023-02-12T14:18:42;11.13;;;6.50;;
45970;SDS011;31681;48.982;8.394;2023-02-12T14:23:35;11.48;;;6.75;;
45970;SDS011;31681;48.982;8.394;2023-02-12T14:29:01;11.35;;;6.57;;
45970;SDS011;31681;48.982;8.394;2023-02-12T14:35:22;9.25;;;5.75;;
45970;SDS011;31681;48.982;8.394;2023-02-12T14:37:47;9.63;;;6.00;;
45970;SDS011;31681;48.982;8.394;2023-02-12T15:04:57;10.85;;;6.22;;
45970;SDS011;31681;48.982;8.394;2023-02-12T15:07:28;7.95;;;5.22;;
45970;SDS011;31681;48.982;8.394;2023-02-12T15:10:16;8.05;;;5.00;;
45970;SDS011;31681;48.982;8.394;2023-02-12T15:15:38;7.03;;;4.53;;
45970;SDS011;31681;48.982;8.394;2023-02-12T15:18:26;6.03;;;3.58;;
45970;SDS011;31681;48.982;8.394;2023-02-12T15:39:45;5.50;;;3.55;;
45970;SDS011;31681;48.982;8.394;2023-02-12T15:42:22;5.45;;;4.07;;
45970;SDS011;31681;48.982;8.394;2023-02-12T15:44:59;5.88;;;4.28;;
45970;SDS011;31681;48.982;8.394;2023-02-12T15:53:38;6.30;;;4.00;;
45970;SDS011;31681;48.982;8.394;2023-02-12T15:59:56;4.45;;;3.85;;
45970;SDS011;31681;48.982;8.394;2023-02-12T16:02:35;5.07;;;3.70;;
45970;SDS011;31681;48.982;8.394;2023-02-12T16:05:06;5.07;;;3.67;;
45970;SDS011;31681;48.982;8.394;2023-02-12T16:07:35;5.43;;;3.58;;
45970;SDS011;31681;48.982;8.394;2023-02-12T16:10:13;6.15;;;3.35;;
45970;SDS011;31681;48.982;8.394;2023-02-12T16:12:38;6.38;;;3.95;;
45970;SDS011;31681;48.982;8.394;2023-02-12T16:15:05;5.65;;;3.67;;
45970;SDS011;31681;48.982;8.394;2023-02-12T16:17:36;5.00;;;3.33;;
45970;SDS011;31681;48.982;8.394;2023-02-12T16:22:40;5.72;;;3.60;;
45970;SDS011;31681;48.982;8.394;2023-02-12T16:25:14;6.22;;;3.75;;
45970;SDS011;31681;48.982;8.394;2023-02-12T16:27:40;5.28;;;3.35;;
45970;SDS011;31681;48.982;8.394;2023-02-12T16:30:07;6.55;;;4.00;;
45970;SDS011;31681;48.982;8.394;2023-02-12T16:32:46;5.60;;;4.32;;
45970;SDS011;31681;48.982;8.394;2023-02-12T16:37:42;7.38;;;4.45;;
45970;SDS011;31681;48.982;8.394;2023-02-12T16:42:34;5.57;;;4.15;;
45970;SDS011;31681;48.982;8.394;2023-02-12T16:44:59;7.45;;;4.85;;
45970;SDS011;31681;48.982;8.394;2023-02-12T16:47:25;7.85;;;4.85;;
45970;SDS011;31681;48.982;8.394;2023-02-12T16:52:23;7.53;;;4.85;;
45970;SDS011;31681;48.982;8.394;2023-02-12T16:54:50;9.70;;;5.18;;
45970;SDS011;31681;48.982;8.394;2023-02-12T16:57:15;7.18;;;4.38;;
45970;SDS011;31681;48.982;8.394;2023-02-12T16:59:40;6.93;;;4.32;;
45970;SDS011;31681;48.982;8.394;2023-02-12T17:02:12;8.15;;;5.68;;
45970;SDS011;31681;48.982;8.394;2023-02-12T17:04:38;8.05;;;4.90;;
45970;SDS011;31681;48.982;8.394;2023-02-12T17:07:08;6.53;;;4.70;;
45970;SDS011;31681;48.982;8.394;2023-02-12T17:09:34;6.95;;;4.93;;
45970;SDS011;31681;48.982;8.394;2023-02-12T17:11:59;6.72;;;4.20;;
45970;SDS011;31681;48.982;8.394;2023-02-12T17:14:24;7.20;;;4.60;;
45970;SDS011;31681;48.982;8.394;2023-02-12T17:16:50;6.03;;;4.15;;
45970;SDS011;31681;48.982;8.394;2023-02-12T17:19:15;7.30;;;4.20;;
45970;SDS011;31681;48.982;8.394;2023-02-12T17:21:42;6.70;;;4.40;;
45970;SDS011;31681;48.982;8.394;2023-02-12T17:26:34;8.00;;;4.60;;
45970;SDS011;31681;48.982;8.394;2023-02-12T17:28:59;10.02;;;4.90;;
45970;SDS011;31681;48.982;8.394;2023-02-12T17:31:32;9.90;;;4.80;;
45970;SDS011;31681;48.982;8.394;2023-02-12T17:33:58;7.85;;;4.55;;
45970;SDS011;31681;48.982;8.394;2023-02-12T17:36:23;7.88;;;5.07;;
45970;SDS011;31681;48.982;8.394;2023-02-12T17:38:49;8.23;;;5.00;;
45970;SDS011;31681;48.982;8.394;2023-02-12T17:41:15;8.98;;;5.72;;
45970;SDS011;31681;48.982;8.394;2023-02-12T17:43:40;7.60;;;5.63;;
45970;SDS011;31681;48.982;8.394;2023-02-12T17:46:09;10.07;;;6.40;;
45970;SDS011;31681;48.982;8.394;2023-02-12T17:48:35;9.25;;;6.57;;
45970;SDS011;31681;48.982;8.394;2023-02-12T17:51:01;9.40;;;6.40;;
45970;SDS011;31681;48.982;8.394;2023-02-12T17:53:26;12.45;;;7.72;;
45970;SDS011;31681;48.982;8.394;2023-02-12T17:55:51;11.70;;;6.72;;
45970;SDS011;31681;48.982;8.394;2023-02-12T17:58:17;8.40;;;5.60;;
45970;SDS011;31681;48.982;8.394;2023-02-12T18:00:42;8.73;;;5.18;;
45970;SDS011;31681;48.982;8.394;2023-02-12T18:03:08;7.90;;;5.30;;
45970;SDS011;31681;48.982;8.394;2023-02-12T18:05:33;9.15;;;5.82;;
45970;SDS011;31681;48.982;8.394;2023-02-12T18:08:05;10.30;;;6.15;;
45970;SDS011;31681;48.982;8.394;2023-02-12T18:10:30;9.20;;;5.80;;
45970;SDS011;31681;48.982;8.394;2023-02-12T18:12:55;8.88;;;5.65;;
45970;SDS011;31681;48.982;8.394;2023-02-12T18:15:21;8.15;;;5.47;;
45970;SDS011;31681;48.982;8.394;2023-02-12T18:17:46;9.32;;;6.30;;
45970;SDS011;31681;48.982;8.394;2023-02-12T18:20:11;11.75;;;6.05;;
45970;SDS011;31681;48.982;8.394;2023-02-12T18:22:37;8.15;;;5.45;;
45970;SDS011;31681;48.982;8.394;2023-02-12T18:25:02;10.05;;;6.25;;
45970;SDS011;31681;48.982;8.394;2023-02-12T18:27:28;9.88;;;6.40;;
45970;SDS011;31681;48.982;8.394;2023-02-12T18:29:53;8.38;;;5.13;;